Time;durP1;ratioP1;P1;durP2;ratioP2;P2;SDS_P1;SDS_P2;PMS_P1;PMS_P2;Temp;Humidity;BMP_temperature;BMP_pressure;BME280_temperature;BME280_humidity;BME280_pressure;Samples;Min_cycle;Max_cycle;Signal;HPM_P1;HPM_P2
2024/04/17 00:01:02;;;;;;;3.60;1.27;;;;;;;8.54;64.84;95287.59;5375494;26;20234;-70
2024/04/17 00:03:28;;;;;;;2.77;1.37;;;;;;;8.40;65.38;95287.47;5369946;26;21068;-71
2024/04/17 00:05:53;;;;;;;1.73;1.10;;;;;;;8.43;65.23;95288.19;5370989;26;20288;-71
2024/04/17 00:08:18;;;;;;;1.53;1.00;;;;;;;8.47;65.10;95284.44;5370286;26;20280;-71
2024/04/17 00:10:44;;;;;;;1.30;1.13;;;;;;;8.53;64.34;95288.53;5370939;26;20607;-71
2024/04/17 00:13:09;;;;;;;2.30;1.00;;;;;;;8.49;64.53;95289.59;5369862;26;20343;-69
2024/04/17 00:15:34;;;;;;;1.83;1.30;;;;;;;8.60;64.46;95292.50;5369519;26;20234;-69
2024/04/17 00:18:00;;;;;;;3.70;1.40;;;;;;;8.56;64.01;95277.06;5370688;26;20369;-70
2024/04/17 00:20:25;;;;;;;4.20;1.30;;;;;;;8.54;64.38;95291.97;5370210;26;20272;-70
2024/04/17 00:22:51;;;;;;;1.50;1.10;;;;;;;8.75;63.66;95285.59;5369887;26;20230;-70
2024/04/17 00:25:16;;;;;;;1.60;1.10;;;;;;;8.48;64.63;95293.16;5372690;26;20237;-70
2024/04/17 00:27:41;;;;;;;1.37;1.27;;;;;;;8.57;64.39;95290.03;5373685;26;20751;-70
2024/04/17 00:30:07;;;;;;;1.50;1.10;;;;;;;8.46;65.11;95284.56;5370578;26;20334;-70
2024/04/17 00:32:33;;;;;;;1.77;1.27;;;;;;;8.36;65.53;95286.78;5369879;26;20225;-70
2024/04/17 00:34:58;;;;;;;2.23;2.03;;;;;;;8.26;66.31;95288.16;5367612;26;20245;-70
2024/04/17 00:37:23;;;;;;;1.47;1.20;;;;;;;8.30;66.49;95283.66;5369596;26;20260;-71
2024/04/17 00:39:49;;;;;;;2.10;1.00;;;;;;;8.46;65.63;95281.94;5370056;26;20235;-70
2024/04/17 00:42:14;;;;;;;1.80;1.27;;;;;;;8.34;66.13;95287.75;5369662;26;20621;-71
2024/04/17 00:44:39;;;;;;;2.17;1.13;;;;;;;8.37;66.05;95280.63;5369059;26;20264;-70
2024/04/17 00:47:08;;;;;;;1.60;1.23;;;;;;;8.32;66.59;95281.78;5369776;26;20432;-70
2024/04/17 00:49:35;;;;;;;2.00;1.30;;;;;;;8.37;65.99;95285.00;5369745;26;20233;-70
2024/04/17 00:52:01;;;;;;;2.80;2.30;;;;;;;8.33;66.39;95278.25;5369008;26;20509;-71
2024/04/17 00:54:27;;;;;;;5.27;1.30;;;;;;;8.34;66.52;95275.56;5368805;26;20514;-70
2024/04/17 00:56:54;;;;;;;1.60;1.10;;;;;;;8.34;66.81;95274.69;5367783;26;20339;-71
2024/04/17 00:59:20;;;;;;;1.43;1.30;;;;;;;8.20;67.69;95278.91;5369273;26;20448;-70
2024/04/17 01:01:45;;;;;;;1.30;1.10;;;;;;;8.31;66.63;95275.69;5368785;26;20580;-71
2024/04/17 01:04:11;;;;;;;1.53;1.23;;;;;;;8.35;67.00;95272.00;5369596;26;20280;-71
2024/04/17 01:06:36;;;;;;;1.50;1.30;;;;;;;8.34;66.77;95269.47;5369741;26;20724;-70
2024/04/17 01:09:02;;;;;;;1.73;1.30;;;;;;;8.32;66.94;95268.72;5372761;26;20233;-71
2024/04/17 01:11:37;;;;;;;1.60;1.30;;;;;;;8.34;66.83;95270.34;5372987;26;20229;-72
2024/04/17 01:14:02;;;;;;;1.50;1.17;;;;;;;8.34;66.98;95266.84;5372197;26;20342;-70
2024/04/17 01:16:28;;;;;;;1.33;1.20;;;;;;;8.28;67.53;95262.81;5366469;26;20460;-72
2024/04/17 01:18:55;;;;;;;1.63;1.33;;;;;;;8.24;67.15;95262.13;5372878;26;20280;-70
2024/04/17 01:21:20;;;;;;;2.70;1.40;;;;;;;8.23;67.57;95254.38;5372693;26;20229;-72
2024/04/17 01:23:50;;;;;;;1.47;1.10;;;;;;;8.32;66.82;95253.03;5370906;26;20464;-70
2024/04/17 01:26:16;;;;;;;1.90;1.33;;;;;;;8.34;66.82;95256.41;5372050;26;20313;-69
2024/04/17 01:28:41;;;;;;;1.87;1.40;;;;;;;8.30;66.96;95247.88;5372092;26;20459;-71
2024/04/17 01:31:07;;;;;;;1.97;1.77;;;;;;;8.19;67.73;95245.84;5372216;26;20292;-70
2024/04/17 01:33:32;;;;;;;1.57;1.20;;;;;;;8.17;67.91;95247.72;5371763;26;20237;-70
2024/04/17 01:35:57;;;;;;;4.90;1.40;;;;;;;8.39;67.37;95249.19;5372377;26;20317;-71
2024/04/17 01:38:23;;;;;;;1.77;1.20;;;;;;;8.18;68.12;95249.38;5372585;26;21097;-71
2024/04/17 01:40:48;;;;;;;1.37;1.27;;;;;;;8.12;68.43;95247.06;5367785;26;20238;-72
2024/04/17 01:43:14;;;;;;;5.47;1.40;;;;;;;8.11;68.27;95241.97;5364723;26;20234;-71
2024/04/17 01:45:45;;;;;;;1.50;1.13;;;;;;;8.09;68.77;95246.41;5361854;26;20242;-71
2024/04/17 01:48:10;;;;;;;1.60;1.27;;;;;;;8.12;68.41;95234.00;5362339;26;20794;-71
2024/04/17 01:50:36;;;;;;;3.07;1.43;;;;;;;8.10;67.87;95237.63;5360413;26;20515;-71
2024/04/17 01:53:01;;;;;;;2.67;1.37;;;;;;;8.19;66.80;95237.16;5363826;26;20288;-71
2024/04/17 01:55:27;;;;;;;1.40;1.17;;;;;;;8.24;66.74;95238.63;5360478;26;20234;-70
2024/04/17 01:57:52;;;;;;;1.30;1.10;;;;;;;8.33;65.97;95241.66;5372083;26;20234;-70
2024/04/17 02:00:18;;;;;;;1.33;1.23;;;;;;;8.19;65.54;95238.00;5372280;26;20230;-71
2024/04/17 02:02:43;;;;;;;1.60;1.37;;;;;;;8.19;64.97;95240.59;5371463;26;20297;-71
2024/04/17 02:05:08;;;;;;;1.60;1.40;;;;;;;8.14;65.23;95245.25;5361772;26;20231;-71
2024/04/17 02:07:34;;;;;;;1.90;1.30;;;;;;;8.18;65.67;95244.16;5366388;26;20320;-71
2024/04/17 02:09:59;;;;;;;3.67;1.47;;;;;;;8.23;65.62;95251.75;5372012;26;20303;-71
2024/04/17 02:12:25;;;;;;;2.30;1.23;;;;;;;8.21;66.06;95254.44;5371217;26;20829;-72
2024/04/17 02:14:50;;;;;;;2.27;1.30;;;;;;;8.16;65.57;95256.47;5364449;26;20320;-70
2024/04/17 02:17:15;;;;;;;1.30;1.00;;;;;;;8.15;64.86;95259.13;5369826;26;20275;-72
2024/04/17 02:19:41;;;;;;;1.13;1.00;;;;;;;8.05;65.54;95256.16;5370869;26;20276;-72
2024/04/17 02:22:06;;;;;;;1.10;1.00;;;;;;;7.92;66.55;95257.75;5372526;26;20265;-71
2024/04/17 02:24:32;;;;;;;1.67;1.13;;;;;;;8.16;65.84;95255.63;5371505;26;20225;-72
2024/04/17 02:26:57;;;;;;;1.10;1.00;;;;;;;7.92;66.30;95253.38;5372080;26;20218;-72
2024/04/17 02:29:22;;;;;;;2.00;1.27;;;;;;;7.74;67.79;95254.31;5371741;26;20345;-70
2024/04/17 02:31:48;;;;;;;1.53;1.33;;;;;;;7.88;66.36;95259.66;5370594;26;20288;-69
2024/04/17 02:34:13;;;;;;;1.97;1.50;;;;;;;7.90;66.16;95254.38;5370880;26;20467;-70
2024/04/17 02:36:39;;;;;;;2.20;1.40;;;;;;;7.90;66.44;95252.59;5371751;26;20292;-71
2024/04/17 02:39:04;;;;;;;1.93;1.30;;;;;;;7.88;66.56;95256.22;5370678;26;20395;-70
2024/04/17 02:41:30;;;;;;;2.37;2.00;;;;;;;7.78;66.85;95258.44;5371751;26;21067;-71
2024/04/17 02:43:55;;;;;;;2.63;1.60;;;;;;;7.65;67.84;95263.44;5369651;26;20233;-71
2024/04/17 02:46:20;;;;;;;2.00;1.50;;;;;;;7.87;67.20;95265.81;5371425;26;20233;-70
2024/04/17 02:48:46;;;;;;;1.83;1.00;;;;;;;7.82;68.14;95260.00;5371181;26;20338;-71
2024/04/17 02:51:11;;;;;;;3.10;1.10;;;;;;;7.73;69.47;95265.69;5370985;26;20356;-71
2024/04/17 02:53:36;;;;;;;2.03;1.27;;;;;;;7.72;69.67;95270.03;5370131;26;20229;-71
2024/04/17 02:56:02;;;;;;;2.60;1.20;;;;;;;7.70;69.29;95265.81;5371429;26;20272;-71
2024/04/17 02:58:27;;;;;;;1.93;1.07;;;;;;;7.80;68.75;95267.06;5373228;26;20230;-70
2024/04/17 03:00:53;;;;;;;2.70;1.23;;;;;;;7.86;67.65;95264.13;5370818;26;20226;-71
2024/04/17 03:03:18;;;;;;;2.53;1.20;;;;;;;8.01;67.45;95262.50;5371291;26;20260;-71
2024/04/17 03:05:44;;;;;;;2.13;1.33;;;;;;;7.82;68.03;95271.28;5372487;26;20318;-71
2024/04/17 03:08:09;;;;;;;2.43;1.47;;;;;;;7.84;67.58;95271.19;5370517;26;20356;-72
2024/04/17 03:10:35;;;;;;;2.20;1.67;;;;;;;7.87;67.80;95276.28;5371265;26;20233;-70
2024/04/17 03:13:00;;;;;;;2.27;2.03;;;;;;;7.93;68.20;95280.31;5363703;26;20302;-71
2024/04/17 03:15:25;;;;;;;2.87;1.40;;;;;;;7.91;68.39;95276.94;5357186;26;20226;-70
2024/04/17 03:17:51;;;;;;;2.53;1.20;;;;;;;7.89;67.55;95278.78;5371934;26;20237;-69
2024/04/17 03:20:16;;;;;;;2.60;1.40;;;;;;;7.74;68.57;95280.41;5372421;26;20229;-70
2024/04/17 03:22:42;;;;;;;1.30;1.20;;;;;;;7.73;68.09;95274.34;5370285;26;20400;-72
2024/04/17 03:25:08;;;;;;;1.57;1.10;;;;;;;7.84;67.58;95282.50;5369333;26;20277;-71
2024/04/17 03:27:33;;;;;;;3.10;1.10;;;;;;;7.73;69.07;95279.56;5373583;26;20631;-71
2024/04/17 03:29:58;;;;;;;2.03;1.13;;;;;;;7.81;68.11;95285.25;5378643;26;20233;-70
2024/04/17 03:32:24;;;;;;;1.40;1.10;;;;;;;7.79;68.13;95279.25;5370220;26;20330;-71
2024/04/17 03:34:49;;;;;;;3.93;1.33;;;;;;;7.81;67.72;95280.03;5370018;26;20318;-72
2024/04/17 03:37:15;;;;;;;3.63;1.23;;;;;;;7.74;69.03;95291.69;5370571;26;20810;-72
2024/04/17 03:39:41;;;;;;;2.30;1.30;;;;;;;7.71;68.87;95283.19;5371081;26;20222;-71
2024/04/17 03:42:06;;;;;;;1.80;1.30;;;;;;;7.92;69.24;95287.31;5347787;26;20234;-71
2024/04/17 03:44:32;;;;;;;1.50;1.23;;;;;;;7.72;70.13;95290.09;5364642;26;20225;-70
2024/04/17 03:46:58;;;;;;;2.97;2.00;;;;;;;7.76;69.87;95289.84;5370312;26;20388;-71
2024/04/17 03:49:24;;;;;;;2.57;1.50;;;;;;;7.81;69.84;95287.84;5356650;26;20280;-71
2024/04/17 03:51:49;;;;;;;2.50;1.57;;;;;;;7.97;69.89;95290.53;5370232;26;20459;-72
2024/04/17 03:54:15;;;;;;;2.40;1.50;;;;;;;7.92;70.08;95292.53;5369436;26;20275;-69
2024/04/17 03:56:41;;;;;;;3.47;1.40;;;;;;;7.88;71.53;95298.84;5369683;26;20233;-71
2024/04/17 03:59:06;;;;;;;2.30;1.20;;;;;;;7.78;70.97;95297.63;5369956;26;21064;-70
2024/04/17 04:01:36;;;;;;;1.47;1.00;;;;;;;7.74;69.77;95296.09;5370659;26;20233;-71
2024/04/17 04:04:01;;;;;;;1.73;1.00;;;;;;;7.60;68.48;95297.59;5370234;26;20230;-71
2024/04/17 04:06:26;;;;;;;1.10;0.80;;;;;;;7.54;68.39;95299.72;5370125;26;20586;-71
2024/04/17 04:08:52;;;;;;;1.30;0.80;;;;;;;7.22;68.86;95302.94;5369467;26;20332;-70
2024/04/17 04:11:17;;;;;;;1.40;0.80;;;;;;;7.46;68.51;95297.44;5369714;26;20367;-71
2024/04/17 04:13:43;;;;;;;1.80;0.90;;;;;;;7.48;67.41;95300.84;5369046;26;20342;-71
2024/04/17 04:16:08;;;;;;;2.20;1.03;;;;;;;7.53;68.21;95298.84;5362081;26;20988;-69
2024/04/17 04:18:33;;;;;;;2.23;1.00;;;;;;;7.49;67.65;95301.66;5370376;26;20719;-69
2024/04/17 04:20:59;;;;;;;3.00;0.90;;;;;;;7.52;68.27;95311.97;5370602;26;20271;-72
2024/04/17 04:23:24;;;;;;;1.57;0.80;;;;;;;7.37;67.77;95304.00;5368645;26;20256;-72
2024/04/17 04:25:49;;;;;;;2.53;1.27;;;;;;;7.35;68.26;95307.59;5369342;26;20335;-71
2024/04/17 04:28:15;;;;;;;3.97;1.37;;;;;;;7.38;68.80;95310.88;5369338;26;20655;-69
2024/04/17 04:30:41;;;;;;;1.53;1.00;;;;;;;7.22;68.75;95313.38;5369629;26;20233;-70
2024/04/17 04:33:08;;;;;;;2.07;0.83;;;;;;;7.33;69.17;95312.03;5369449;26;20229;-71
2024/04/17 04:35:34;;;;;;;1.40;1.00;;;;;;;7.38;68.76;95316.09;5369042;26;20785;-71
2024/04/17 04:37:59;;;;;;;3.77;1.00;;;;;;;7.35;69.40;95321.47;5356491;26;20471;-72
2024/04/17 04:40:25;;;;;;;1.90;1.20;;;;;;;7.42;70.10;95322.03;5365605;26;20590;-72
2024/04/17 04:42:50;;;;;;;1.77;1.17;;;;;;;7.42;69.10;95328.09;5367106;26;21113;-71
2024/04/17 04:45:16;;;;;;;6.73;2.10;;;;;;;7.36;69.17;95328.38;5369083;26;20479;-70
2024/04/17 04:47:41;;;;;;;1.83;1.20;;;;;;;7.39;68.96;95333.47;5369143;26;20237;-70
2024/04/17 04:50:06;;;;;;;1.67;0.90;;;;;;;7.29;69.15;95329.59;5368657;26;20271;-70
2024/04/17 04:52:32;;;;;;;2.03;0.80;;;;;;;6.91;70.07;95336.63;5368079;26;20249;-70
2024/04/17 04:54:57;;;;;;;1.30;1.00;;;;;;;7.35;69.87;95336.31;5368559;26;20233;-70
2024/04/17 04:57:22;;;;;;;1.80;1.10;;;;;;;7.37;68.97;95340.53;5369263;26;20676;-70
2024/04/17 04:59:49;;;;;;;1.50;0.97;;;;;;;7.44;69.14;95346.31;5368746;26;20245;-70
2024/04/17 05:02:15;;;;;;;1.97;1.10;;;;;;;7.31;69.18;95348.63;5369942;26;20327;-70
2024/04/17 05:04:41;;;;;;;1.10;0.80;;;;;;;7.24;68.60;95349.84;5370604;26;20472;-68
2024/04/17 05:07:06;;;;;;;1.17;0.70;;;;;;;7.32;69.27;95341.66;5370852;26;20298;-69
2024/04/17 05:09:32;;;;;;;1.80;1.03;;;;;;;7.40;68.82;95342.16;5372214;26;20611;-69
2024/04/17 05:11:57;;;;;;;4.80;1.10;;;;;;;7.51;68.96;95339.00;5366075;26;20273;-69
2024/04/17 05:14:23;;;;;;;4.13;1.30;;;;;;;7.42;68.31;95342.91;5355971;26;20616;-69
2024/04/17 05:16:48;;;;;;;4.20;1.70;;;;;;;7.46;68.99;95339.22;5369643;26;20234;-69
2024/04/17 05:19:13;;;;;;;4.80;1.03;;;;;;;7.49;68.41;95343.44;5380171;26;20280;-70
2024/04/17 05:21:39;;;;;;;2.73;1.10;;;;;;;7.29;68.25;95345.25;5371883;26;20233;-70
2024/04/17 05:24:04;;;;;;;4.70;1.17;;;;;;;7.20;69.10;95345.69;5377630;26;20221;-71
2024/04/17 05:26:32;;;;;;;2.13;1.30;;;;;;;7.30;69.27;95348.69;5380327;26;20730;-70
2024/04/17 05:28:58;;;;;;;1.70;1.47;;;;;;;7.42;69.44;95346.38;5372852;26;20242;-70
2024/04/17 05:31:23;;;;;;;2.90;1.10;;;;;;;7.43;69.25;95348.03;5384915;26;20459;-68
2024/04/17 05:33:48;;;;;;;1.40;1.20;;;;;;;7.50;69.20;95352.97;5379866;26;21574;-72
2024/04/17 05:36:14;;;;;;;1.73;1.10;;;;;;;7.42;68.45;95345.53;5361592;26;20338;-72
2024/04/17 05:38:39;;;;;;;1.93;1.37;;;;;;;7.38;68.92;95350.03;5363476;26;20285;-70
2024/04/17 05:41:05;;;;;;;2.80;1.00;;;;;;;7.36;67.93;95358.84;5373630;26;20343;-71
2024/04/17 05:43:30;;;;;;;3.30;1.30;;;;;;;7.50;67.67;95361.66;5368692;26;20272;-71
2024/04/17 05:45:56;;;;;;;1.50;0.90;;;;;;;7.57;68.12;95357.81;5368271;26;20241;-71
2024/04/17 05:48:21;;;;;;;1.63;1.10;;;;;;;7.41;67.58;95364.69;5368071;26;20366;-71
2024/04/17 05:50:46;;;;;;;1.30;1.10;;;;;;;7.35;68.00;95358.03;5366130;26;20959;-71
2024/04/17 05:53:12;;;;;;;1.40;1.20;;;;;;;7.32;67.62;95366.00;5364699;26;20243;-69
2024/04/17 05:55:40;;;;;;;2.33;1.40;;;;;;;7.46;67.58;95361.88;5367974;26;20311;-70
2024/04/17 05:58:06;;;;;;;2.60;1.47;;;;;;;7.52;67.79;95364.19;5372465;26;20257;-72
2024/04/17 06:00:33;;;;;;;4.73;1.40;;;;;;;7.42;68.07;95369.03;5367819;26;20509;-70
2024/04/17 06:02:59;;;;;;;1.17;1.00;;;;;;;7.52;67.95;95369.41;5358793;26;20233;-71
2024/04/17 06:05:24;;;;;;;2.23;1.83;;;;;;;7.44;67.35;95372.41;5356892;26;20604;-71
2024/04/17 06:07:50;;;;;;;1.33;1.03;;;;;;;7.50;67.13;95366.03;5348638;26;20265;-71
2024/04/17 06:10:15;;;;;;;1.60;0.97;;;;;;;7.58;66.75;95369.97;5347085;26;20237;-71
2024/04/17 06:12:40;;;;;;;1.70;1.33;;;;;;;7.73;67.99;95370.13;5352496;26;20300;-68
2024/04/17 06:15:06;;;;;;;2.60;1.20;;;;;;;7.52;66.86;95374.63;5349997;26;20634;-67
2024/04/17 06:17:32;;;;;;;5.73;1.30;;;;;;;7.53;67.16;95371.94;5355382;26;20229;-67
2024/04/17 06:19:57;;;;;;;1.47;1.23;;;;;;;7.55;66.42;95371.88;5341279;26;20354;-67
2024/04/17 06:22:23;;;;;;;1.50;1.33;;;;;;;7.53;67.65;95371.94;5360730;26;20229;-68
2024/04/17 06:24:48;;;;;;;1.63;1.20;;;;;;;7.62;68.32;95376.72;5369454;26;20331;-67
2024/04/17 06:27:13;;;;;;;2.13;1.43;;;;;;;7.75;68.43;95382.19;5371032;26;20939;-67
2024/04/17 06:29:39;;;;;;;2.80;1.30;;;;;;;7.70;67.15;95378.09;5368357;26;20238;-67
2024/04/17 06:32:05;;;;;;;1.23;1.00;;;;;;;7.57;67.17;95378.72;5368161;26;20566;-68
2024/04/17 06:34:33;;;;;;;3.83;1.30;;;;;;;7.61;67.27;95385.47;5340689;26;20238;-68
2024/04/17 06:36:58;;;;;;;2.70;1.83;;;;;;;7.62;66.31;95387.16;5355640;26;21146;-67
2024/04/17 06:39:23;;;;;;;5.27;1.27;;;;;;;7.58;65.82;95396.06;5365771;26;20543;-68
2024/04/17 06:41:49;;;;;;;1.87;1.33;;;;;;;7.66;66.58;95393.09;5334090;26;20310;-67
2024/04/17 06:44:16;;;;;;;2.17;1.30;;;;;;;7.94;65.49;95403.03;5344868;26;20253;-66
2024/04/17 06:46:41;;;;;;;3.60;1.33;;;;;;;7.77;66.11;95390.81;5354277;26;20656;-66
2024/04/17 06:49:07;;;;;;;16.67;3.00;;;;;;;7.94;65.31;95395.19;5346731;26;20450;-66
2024/04/17 06:51:34;;;;;;;4.87;1.07;;;;;;;7.74;65.23;95392.72;5366280;26;20230;-68
2024/04/17 06:53:59;;;;;;;9.13;1.70;;;;;;;7.83;65.22;95392.25;5332315;26;20231;-68
2024/04/17 06:56:26;;;;;;;2.43;1.00;;;;;;;7.76;65.08;95399.53;5342673;26;20516;-68
2024/04/17 06:58:51;;;;;;;1.83;1.00;;;;;;;7.81;64.34;95401.94;5370275;26;20237;-67
2024/04/17 07:01:17;;;;;;;2.47;0.90;;;;;;;8.04;63.93;95404.25;5370871;26;20467;-66
2024/04/17 07:03:42;;;;;;;1.20;0.80;;;;;;;7.95;63.80;95399.47;5352967;26;20226;-67
2024/04/17 07:06:07;;;;;;;1.53;1.10;;;;;;;8.11;64.24;95396.97;5356619;26;20760;-67
2024/04/17 07:08:34;;;;;;;2.60;1.33;;;;;;;8.22;64.35;95406.84;5370946;26;20241;-67
2024/04/17 07:10:59;;;;;;;4.20;1.40;;;;;;;8.10;63.82;95392.63;5368328;26;20274;-67
2024/04/17 07:13:24;;;;;;;3.40;1.20;;;;;;;8.19;63.64;95397.41;5367701;26;20490;-67
2024/04/17 07:15:50;;;;;;;3.80;1.53;;;;;;;8.41;63.36;95391.97;5371445;26;20277;-71
2024/04/17 07:18:15;;;;;;;5.10;1.50;;;;;;;8.75;62.63;95392.81;5371951;26;20229;-70
2024/04/17 07:20:42;;;;;;;4.70;1.80;;;;;;;8.81;62.08;95394.25;5371431;26;20280;-70
2024/04/17 07:23:07;;;;;;;2.17;1.20;;;;;;;8.82;61.27;95388.97;5371559;26;20310;-70
2024/04/17 07:25:32;;;;;;;5.27;2.60;;;;;;;8.93;60.99;95392.75;5370634;26;20472;-67
2024/04/17 07:27:58;;;;;;;1.77;1.20;;;;;;;8.83;61.09;95390.63;5370094;26;20553;-67
2024/04/17 07:30:23;;;;;;;8.53;1.30;;;;;;;9.15;60.88;95388.06;5369317;26;20253;-68
2024/04/17 07:32:49;;;;;;;1.70;1.40;;;;;;;9.08;60.19;95390.19;5370003;26;20226;-68
2024/04/17 07:35:14;;;;;;;3.83;1.90;;;;;;;9.05;60.48;95395.59;5369063;26;20237;-68
2024/04/17 07:37:40;;;;;;;6.20;1.87;;;;;;;9.42;60.25;95405.81;5367786;26;20834;-67
2024/04/17 07:40:06;;;;;;;1.27;0.97;;;;;;;9.24;61.04;95392.81;5358114;26;20334;-65
2024/04/17 07:42:31;;;;;;;5.00;1.40;;;;;;;9.20;61.22;95398.28;5369679;26;20247;-67
2024/04/17 07:44:56;;;;;;;2.00;1.70;;;;;;;8.86;62.48;95405.34;5369207;26;20463;-67
2024/04/17 07:47:23;;;;;;;2.27;1.40;;;;;;;8.90;61.93;95396.38;5370241;26;20276;-67
2024/04/17 07:49:48;;;;;;;1.97;1.70;;;;;;;8.89;62.55;95392.94;5370198;26;20234;-68
2024/04/17 07:52:14;;;;;;;2.63;1.40;;;;;;;8.98;62.08;95394.22;5369734;26;20578;-67
2024/04/17 07:54:39;;;;;;;5.37;1.83;;;;;;;9.16;61.70;95396.75;5369729;26;20230;-66
2024/04/17 07:57:05;;;;;;;2.23;2.03;;;;;;;8.62;62.63;95402.22;5372750;26;20320;-67
2024/04/17 07:59:30;;;;;;;2.20;2.00;;;;;;;9.27;62.44;95394.41;5373223;26;20272;-67
2024/04/17 08:01:56;;;;;;;2.90;2.60;;;;;;;9.67;60.96;95394.81;5357179;26;20297;-67
2024/04/17 08:04:21;;;;;;;3.17;2.60;;;;;;;9.85;60.52;95390.28;5371808;26;20241;-67
2024/04/17 08:06:46;;;;;;;2.67;2.30;;;;;;;9.92;59.80;95389.00;5374219;26;20354;-66
2024/04/17 08:09:12;;;;;;;3.43;2.70;;;;;;;9.93;59.34;95388.94;5358540;26;20237;-67
2024/04/17 08:11:37;;;;;;;5.60;2.90;;;;;;;10.25;58.96;95387.97;5366773;26;20264;-66
2024/04/17 08:14:03;;;;;;;3.00;2.70;;;;;;;10.33;58.32;95385.81;5368916;26;20233;-67
2024/04/17 08:16:29;;;;;;;3.73;2.90;;;;;;;10.48;57.91;95389.28;5361868;26;20253;-67
2024/04/17 08:18:54;;;;;;;3.43;2.90;;;;;;;10.37;57.24;95384.69;5369658;26;21460;-65
2024/04/17 08:21:21;;;;;;;2.80;2.50;;;;;;;10.38;57.84;95381.97;5367935;26;20579;-67
2024/04/17 08:23:46;;;;;;;5.27;3.40;;;;;;;10.22;57.49;95381.16;5368349;26;20233;-67
2024/04/17 08:26:12;;;;;;;3.70;3.10;;;;;;;10.00;59.00;95385.97;5370078;26;20932;-67
2024/04/17 08:28:37;;;;;;;7.43;3.00;;;;;;;10.10;58.93;95392.34;5355495;26;20674;-66
2024/04/17 08:31:03;;;;;;;6.20;4.17;;;;;;;10.05;58.69;95386.53;5369758;26;20291;-67
2024/04/17 08:33:28;;;;;;;6.60;4.87;;;;;;;9.96;56.83;95386.13;5365345;26;20342;-67
2024/04/17 08:35:54;;;;;;;8.33;5.83;;;;;;;9.84;57.46;95392.06;5369478;26;20291;-66
2024/04/17 08:38:19;;;;;;;7.93;4.03;;;;;;;9.88;58.90;95398.00;5370238;26;20932;-67
2024/04/17 08:40:45;;;;;;;12.03;5.20;;;;;;;9.90;58.56;95393.53;5375282;26;20333;-67
2024/04/17 08:43:23;;;;;;;7.67;4.63;;;;;;;9.87;59.73;95396.28;5374187;26;20241;-67
2024/04/17 08:45:52;;;;;;;12.00;5.33;;;;;;;9.80;59.68;95406.28;5375598;26;20303;-66
2024/04/17 08:48:18;;;;;;;6.80;5.70;;;;;;;9.63;59.37;95406.41;5375694;26;20515;-65
2024/04/17 08:50:44;;;;;;;8.67;5.60;;;;;;;9.53;62.30;95403.44;5374411;26;20552;-66
2024/04/17 08:53:14;;;;;;;6.50;5.50;;;;;;;9.59;61.97;95413.59;5368674;26;21015;-67
2024/04/17 08:55:41;;;;;;;9.90;6.93;;;;;;;9.63;63.12;95417.72;5367062;26;21238;-67
2024/04/17 08:58:07;;;;;;;7.07;6.20;;;;;;;9.63;61.44;95415.09;5354491;26;20519;-67
2024/04/17 09:00:37;;;;;;;7.63;5.70;;;;;;;9.85;61.57;95419.13;5368893;26;20467;-67
2024/04/17 09:03:10;;;;;;;6.40;5.80;;;;;;;9.92;60.48;95412.59;5369011;26;20541;-66
2024/04/17 09:05:36;;;;;;;9.87;7.40;;;;;;;9.82;59.40;95420.13;5368196;26;21402;-66
2024/04/17 09:08:01;;;;;;;9.00;6.30;;;;;;;9.87;59.32;95420.72;5366497;26;20523;-67
2024/04/17 09:10:27;;;;;;;6.20;5.60;;;;;;;9.86;57.61;95416.41;5368936;26;20245;-66
2024/04/17 09:12:54;;;;;;;10.23;7.00;;;;;;;9.91;57.66;95410.91;5368916;26;20567;-67
2024/04/17 09:15:20;;;;;;;7.23;6.53;;;;;;;9.99;56.90;95410.47;5362130;26;20925;-67
2024/04/17 09:17:47;;;;;;;11.83;8.33;;;;;;;10.06;55.96;95423.16;5368930;26;20528;-65
2024/04/17 09:20:13;;;;;;;7.90;6.70;;;;;;;10.31;56.28;95419.97;5369272;26;20678;-67
2024/04/17 09:22:40;;;;;;;9.23;6.70;;;;;;;10.46;56.37;95415.59;5368249;26;20520;-66
2024/04/17 09:25:15;;;;;;;8.33;6.97;;;;;;;10.50;55.14;95416.28;5368366;26;20849;-67
2024/04/17 09:27:41;;;;;;;7.13;6.43;;;;;;;10.51;56.03;95428.44;5368152;26;20627;-66
2024/04/17 09:30:07;;;;;;;6.50;5.77;;;;;;;10.84;55.95;95417.69;5371506;26;20467;-67
2024/04/17 09:32:32;;;;;;;5.47;4.97;;;;;;;10.93;55.37;95413.69;5371400;26;20349;-68
2024/04/17 09:34:59;;;;;;;7.47;5.83;;;;;;;11.03;55.48;95420.03;5371000;26;20285;-67
2024/04/17 09:37:25;;;;;;;10.83;6.40;;;;;;;11.21;56.52;95415.44;5370958;26;20285;-67
2024/04/17 09:39:51;;;;;;;9.13;5.90;;;;;;;11.01;53.76;95412.28;5371940;26;20543;-67
2024/04/17 09:42:16;;;;;;;13.27;5.67;;;;;;;10.90;55.53;95416.50;5371175;26;20597;-68
2024/04/17 09:44:45;;;;;;;12.00;6.03;;;;;;;11.00;55.49;95415.81;5370879;26;20284;-66
2024/04/17 09:47:11;;;;;;;12.50;6.40;;;;;;;10.65;55.83;95423.22;5372359;26;20318;-65
2024/04/17 09:49:43;;;;;;;6.00;4.70;;;;;;;10.36;57.04;95428.41;5354696;26;20546;-66
2024/04/17 09:52:14;;;;;;;5.67;3.00;;;;;;;10.44;57.13;95417.50;5369170;26;20467;-67
2024/04/17 09:54:42;;;;;;;2.87;2.67;;;;;;;10.42;58.12;95426.34;5368234;26;20468;-66
2024/04/17 09:57:10;;;;;;;2.00;1.73;;;;;;;10.38;57.63;95437.03;5372094;26;20459;-67
2024/04/17 09:59:37;;;;;;;1.97;1.20;;;;;;;10.27;57.64;95428.06;5370857;26;20952;-65
2024/04/17 10:02:03;;;;;;;3.03;1.60;;;;;;;10.12;59.69;95424.56;5371321;26;20584;-68
2024/04/17 10:04:30;;;;;;;1.50;1.30;;;;;;;10.27;58.62;95426.28;5370998;26;20520;-67
2024/04/17 10:06:57;;;;;;;3.90;1.80;;;;;;;10.31;57.68;95429.63;5371678;26;20551;-66
2024/04/17 10:09:23;;;;;;;5.53;1.20;;;;;;;10.56;57.11;95422.00;5371948;26;20459;-67
2024/04/17 10:11:52;;;;;;;10.83;2.20;;;;;;;10.74;56.43;95416.56;5371319;26;20528;-67
2024/04/17 10:14:18;;;;;;;5.63;1.50;;;;;;;11.18;54.86;95411.25;5366980;26;20515;-68
2024/04/17 10:16:44;;;;;;;12.10;1.87;;;;;;;10.80;54.60;95410.97;5367710;26;20459;-67
2024/04/17 10:19:12;;;;;;;3.40;1.93;;;;;;;10.90;53.93;95413.88;5371885;26;20615;-68
2024/04/17 10:21:38;;;;;;;5.90;1.83;;;;;;;11.11;53.54;95415.19;5370150;26;20523;-66
2024/04/17 10:24:08;;;;;;;3.00;1.70;;;;;;;11.50;52.65;95415.41;5356863;26;21128;-66
2024/04/17 10:26:46;;;;;;;3.53;1.43;;;;;;;11.57;52.42;95408.81;5371294;26;20249;-66
2024/04/17 10:29:21;;;;;;;4.93;2.20;;;;;;;11.95;51.23;95419.56;5371499;26;21001;-66
2024/04/17 10:32:02;;;;;;;5.80;2.03;;;;;;;11.95;50.67;95416.06;5370621;26;20451;-66
2024/04/17 10:34:41;;;;;;;3.77;1.60;;;;;;;12.22;51.32;95409.00;5369811;26;20507;-67
2024/04/17 10:37:09;;;;;;;2.63;1.57;;;;;;;12.20;51.13;95412.66;5364268;26;20456;-66
2024/04/17 10:39:37;;;;;;;3.67;2.17;;;;;;;12.12;50.58;95409.69;5370571;26;20637;-66
2024/04/17 10:42:06;;;;;;;3.97;1.80;;;;;;;12.22;50.95;95405.53;5374447;26;20546;-66
2024/04/17 10:44:35;;;;;;;3.17;1.63;;;;;;;12.53;50.73;95404.31;5364717;26;20457;-67
2024/04/17 10:47:04;;;;;;;1.87;1.63;;;;;;;12.56;50.23;95398.81;5362667;26;20601;-67
2024/04/17 10:49:38;;;;;;;5.67;2.70;;;;;;;12.47;49.30;95402.94;5381032;26;20516;-67
2024/04/17 10:52:04;;;;;;;3.90;2.00;;;;;;;12.34;49.76;95403.88;5381345;26;20515;-67
2024/04/17 10:54:29;;;;;;;3.90;2.40;;;;;;;12.25;50.18;95400.06;5379188;26;20982;-67
2024/04/17 10:56:58;;;;;;;2.63;1.97;;;;;;;11.90;50.98;95402.38;5374784;26;20238;-66
2024/04/17 10:59:27;;;;;;;3.93;2.00;;;;;;;11.67;51.39;95394.16;5371122;26;20795;-68
2024/04/17 11:01:52;;;;;;;4.17;2.40;;;;;;;11.80;51.27;95391.59;5370384;26;20517;-67
2024/04/17 11:04:18;;;;;;;8.47;3.57;;;;;;;11.78;52.23;95393.47;5369948;26;20463;-66
2024/04/17 11:06:43;;;;;;;3.50;2.57;;;;;;;11.54;52.48;95398.50;5365175;26;20281;-66
2024/04/17 11:09:09;;;;;;;6.30;3.50;;;;;;;11.76;51.39;95403.22;5361838;26;20315;-67
2024/04/17 11:11:34;;;;;;;2.60;2.30;;;;;;;11.75;52.06;95402.38;5366436;26;20233;-65
2024/04/17 11:14:00;;;;;;;2.93;1.80;;;;;;;11.31;54.06;95403.41;5369175;26;20744;-66
2024/04/17 11:16:25;;;;;;;3.83;3.10;;;;;;;11.27;55.77;95404.56;5366471;26;21237;-67
2024/04/17 11:18:51;;;;;;;2.73;2.17;;;;;;;11.21;56.92;95412.81;5370385;26;20263;-67
2024/04/17 11:21:17;;;;;;;2.37;1.90;;;;;;;11.13;56.70;95404.59;5368637;26;20341;-67
2024/04/17 11:23:43;;;;;;;2.37;1.80;;;;;;;11.38;56.41;95411.75;5368242;26;20276;-67
2024/04/17 11:26:10;;;;;;;2.50;2.00;;;;;;;11.42;57.28;95408.00;5370665;26;20241;-66
2024/04/17 11:28:45;;;;;;;6.10;2.80;;;;;;;11.57;56.92;95417.53;5368358;26;20468;-65
2024/04/17 11:31:11;;;;;;;4.53;1.73;;;;;;;11.43;56.92;95413.19;5370072;26;20467;-68
2024/04/17 11:33:37;;;;;;;2.53;1.30;;;;;;;11.47;54.77;95419.06;5357703;26;20465;-68